Hovedside
METAR-TAF:

METAR-TAF

Lufthavner :

Chongqing Jiangbei internasjonale lufthavn

Chongqing, Kina

breddegrad: 29-31N, lengdegrad: 106-29E, høyde over havet: 351 m

Gjeldene værobservasjon

Denne rapporten ble laget for 17 minutter siden, klokken 17:00 UTC
Flau vind
Temperatur 32°C
Luftfuktighet 46%
Trykk 1002 hPa
Sikt 10 km eller mer
ingen skyer under 1500 m og ingen bygeskyer

METAR: ZUCK 231700Z 00000MPS CAVOK 32/19 Q1002 NOSIG

Tid: 01:17 (17:17 UTC)

Varsel

Denne rapporten ble laget for 8 timer og 12 minutter siden, klokken 09:05 UTC
Varsel gyldig fra 23. klokken 12 UTC til 24. klokken 12 UTC
Vind 6 kt fra Sørøst
Sikt: 6000 m
Spredte skyer i en høyde av 4000 ft

TAF: ZUCK 230905Z 2312/2412 13003MPS 6000 SCT040 TX39/2408Z TN29/2321Z

Værobservasjoner og værvarsel for over 4000 flyplasser (METAR- og TAF-rapporter).

Tilgjengelige stasjoner er representert av de røde og gule prikkene på kartet.

Hold musepekeren over prikken for å se navnet på stasjonen.

Klikk så for å se værobservasjoner og -varsler.

For å forandre kartet kan du klikke på den grønne knappen med svart kryss for å zoome inn, på den grønne knappen med strek for å zoome ut, eller på de grønne pilene for å se tilstøtende kart.


METAR-TAF: